Time;durP1;ratioP1;P1;durP2;ratioP2;P2;SDS_P1;SDS_P2;PMS_P1;PMS_P2;Temp;Humidity;BMP_temperature;BMP_pressure;BME280_temperature;BME280_humidity;BME280_pressure;Samples;Min_cycle;Max_cycle;Signal;HPM_P1;HPM_P2
2023/12/26 00:01:48;;;;;;;0.70;0.70;;;6.70;1.00;;;;;;5103731;28;20655;-81
2023/12/26 00:04:15;;;;;;;0.60;0.60;;;6.60;1.00;;;;;;5103866;28;20170;-81
2023/12/26 00:06:43;;;;;;;0.70;0.70;;;6.50;1.00;;;;;;5105217;28;20212;-80
2023/12/26 00:09:12;;;;;;;0.80;0.80;;;6.50;1.00;;;;;;5110346;28;20218;-79
2023/12/26 00:11:45;;;;;;;0.60;0.60;;;6.60;1.00;;;;;;5107884;28;20173;-77
2023/12/26 00:14:13;;;;;;;0.70;0.70;;;6.40;1.00;;;;;;5107043;28;20613;-81
2023/12/26 00:16:42;;;;;;;0.73;0.73;;;6.90;1.00;;;;;;5102316;28;20266;-81
2023/12/26 00:19:08;;;;;;;0.70;0.70;;;6.80;1.00;;;;;;5101386;28;20304;-81
2023/12/26 00:21:34;;;;;;;0.80;0.80;;;6.80;1.00;;;;;;5100149;28;20208;-81
2023/12/26 00:23:59;;;;;;;0.70;0.70;;;7.00;1.00;;;;;;5100633;28;20170;-81
2023/12/26 00:26:25;;;;;;;0.77;0.77;;;6.60;1.00;;;;;;5098340;28;20554;-81
2023/12/26 00:28:51;;;;;;;0.70;0.70;;;6.60;1.00;;;;;;5111218;27;20261;-80
2023/12/26 00:31:16;;;;;;;0.70;0.70;;;7.10;1.00;;;;;;5120318;28;20173;-79
2023/12/26 00:33:42;;;;;;;0.70;0.70;;;6.60;1.00;;;;;;5121779;28;20559;-80
2023/12/26 00:36:17;;;;;;;0.70;0.70;;;6.50;1.00;;;;;;5121796;28;20194;-81
2023/12/26 00:38:44;;;;;;;0.70;0.70;;;6.60;1.00;;;;;;5120141;28;20238;-81
2023/12/26 00:41:09;;;;;;;0.80;0.80;;;6.90;1.00;;;;;;5122252;28;20694;-81
2023/12/26 00:43:35;;;;;;;0.60;0.60;;;6.50;1.00;;;;;;5128850;28;20188;-78
2023/12/26 00:46:00;;;;;;;0.80;0.80;;;6.50;1.00;;;;;;5125752;28;20260;-79
2023/12/26 00:48:26;;;;;;;0.70;0.70;;;6.50;1.00;;;;;;5121093;28;20212;-80
2023/12/26 00:50:52;;;;;;;0.67;0.67;;;6.50;1.00;;;;;;5123916;28;20719;-80
2023/12/26 00:53:17;;;;;;;0.70;0.70;;;6.40;1.00;;;;;;5126246;28;20185;-81
2023/12/26 00:55:43;;;;;;;0.80;0.80;;;6.40;1.00;;;;;;5124924;28;20222;-81
2023/12/26 00:58:08;;;;;;;0.70;0.70;;;6.30;1.00;;;;;;5127784;28;20161;-80
2023/12/26 01:00:34;;;;;;;0.80;0.80;;;6.30;1.00;;;;;;5126978;28;20173;-80
2023/12/26 01:02:59;;;;;;;0.70;0.70;;;6.30;1.00;;;;;;5126244;28;20252;-81
2023/12/26 01:05:25;;;;;;;0.80;0.80;;;6.20;1.00;;;;;;5124529;28;20546;-81
2023/12/26 01:07:50;;;;;;;0.70;0.70;;;6.10;1.00;;;;;;5126075;27;20268;-80
2023/12/26 01:10:16;;;;;;;0.70;0.70;;;6.00;1.00;;;;;;5125864;28;20169;-80
2023/12/26 01:12:42;;;;;;;0.70;0.70;;;6.20;1.00;;;;;;5125932;28;20175;-81
2023/12/26 01:15:07;;;;;;;0.73;0.73;;;5.90;1.00;;;;;;5125888;28;20165;-81
2023/12/26 01:17:33;;;;;;;0.80;0.80;;;5.90;1.00;;;;;;5125710;28;20615;-81
2023/12/26 01:19:59;;;;;;;0.80;0.80;;;5.70;1.00;;;;;;5126025;28;20580;-79
2023/12/26 01:22:24;;;;;;;0.70;0.70;;;5.90;1.00;;;;;;5125663;28;20177;-81
2023/12/26 01:24:51;;;;;;;0.80;0.80;;;5.90;1.00;;;;;;5125512;28;20219;-81
2023/12/26 01:27:16;;;;;;;0.70;0.70;;;5.90;1.00;;;;;;5126105;28;20201;-81
2023/12/26 01:29:42;;;;;;;0.80;0.80;;;5.90;1.00;;;;;;5126769;28;20280;-80
2023/12/26 01:32:08;;;;;;;0.70;0.70;;;5.80;1.00;;;;;;5127315;28;20168;-79
2023/12/26 01:34:33;;;;;;;0.80;0.80;;;5.80;1.00;;;;;;5130901;28;20242;-78
2023/12/26 01:36:59;;;;;;;0.60;0.60;;;5.80;1.00;;;;;;5131155;28;20235;-78
2023/12/26 01:39:26;;;;;;;0.70;0.70;;;5.80;1.00;;;;;;5130724;28;20177;-78
2023/12/26 01:41:52;;;;;;;0.70;0.70;;;6.30;1.00;;;;;;5130018;28;20187;-78
2023/12/26 01:44:17;;;;;;;0.80;0.80;;;5.80;1.00;;;;;;5126301;28;20180;-80
2023/12/26 01:46:43;;;;;;;0.70;0.70;;;5.80;1.00;;;;;;5122680;28;20193;-79
2023/12/26 01:49:09;;;;;;;0.60;0.60;;;5.80;1.00;;;;;;5125117;28;20587;-81
2023/12/26 01:51:36;;;;;;;0.70;0.70;;;5.80;1.00;;;;;;5125450;28;20195;-80
2023/12/26 01:54:02;;;;;;;0.80;0.80;;;5.80;1.00;;;;;;5124973;28;20229;-80
2023/12/26 01:56:29;;;;;;;0.70;0.70;;;5.80;1.00;;;;;;5123973;28;20242;-80
2023/12/26 01:58:55;;;;;;;0.70;0.70;;;5.90;1.00;;;;;;5124534;28;20177;-80
2023/12/26 02:01:21;;;;;;;0.80;0.80;;;5.90;1.00;;;;;;5124496;28;20187;-80
2023/12/26 02:03:47;;;;;;;0.70;0.70;;;5.90;1.00;;;;;;5125149;28;20200;-81
2023/12/26 02:06:14;;;;;;;0.80;0.80;;;5.90;1.00;;;;;;5123895;28;20690;-81
2023/12/26 02:08:40;;;;;;;0.80;0.80;;;5.90;1.00;;;;;;5124782;28;20189;-80
2023/12/26 02:11:06;;;;;;;0.90;0.90;;;5.90;1.00;;;;;;5124740;28;20188;-81
2023/12/26 02:13:34;;;;;;;0.80;0.80;;;6.20;1.00;;;;;;5132682;28;20540;-78
2023/12/26 02:16:03;;;;;;;0.80;0.80;;;5.90;1.00;;;;;;5132869;28;20189;-78
2023/12/26 02:18:29;;;;;;;0.70;0.70;;;5.70;1.00;;;;;;5133232;28;20173;-77
2023/12/26 02:20:55;;;;;;;0.70;0.70;;;5.70;1.00;;;;;;5132135;27;20177;-80
2023/12/26 02:23:22;;;;;;;0.73;0.73;;;5.70;1.00;;;;;;5125046;28;20191;-81
2023/12/26 02:25:49;;;;;;;0.80;0.80;;;5.70;1.00;;;;;;5125259;28;20197;-81
2023/12/26 02:28:15;;;;;;;0.70;0.70;;;5.70;1.00;;;;;;5124334;28;20243;-81
2023/12/26 02:30:42;;;;;;;0.70;0.70;;;5.80;1.00;;;;;;5126341;28;20193;-81
2023/12/26 02:33:08;;;;;;;0.70;0.70;;;5.80;1.00;;;;;;5125375;28;20173;-79
2023/12/26 02:35:33;;;;;;;0.70;0.70;;;5.90;1.00;;;;;;5123455;28;20611;-79
2023/12/26 02:38:01;;;;;;;0.83;0.83;;;5.90;1.00;;;;;;5124722;28;20176;-81
2023/12/26 02:40:27;;;;;;;0.70;0.70;;;5.90;1.00;;;;;;5124044;28;20197;-80
2023/12/26 02:42:52;;;;;;;0.80;0.80;;;6.30;1.00;;;;;;5124085;28;20184;-80
2023/12/26 02:45:18;;;;;;;0.70;0.70;;;6.10;1.00;;;;;;5122697;28;20228;-79
2023/12/26 02:47:44;;;;;;;0.80;0.80;;;6.10;1.00;;;;;;5121445;28;20201;-79
2023/12/26 02:50:09;;;;;;;0.70;0.70;;;6.10;1.00;;;;;;5114180;28;20169;-80
2023/12/26 02:52:35;;;;;;;0.80;0.80;;;6.20;1.00;;;;;;5113556;28;20173;-80
2023/12/26 02:55:00;;;;;;;0.80;0.80;;;6.30;1.00;;;;;;5113950;27;20177;-80
2023/12/26 02:57:26;;;;;;;0.70;0.70;;;6.30;1.00;;;;;;5114675;28;20200;-80
2023/12/26 02:59:51;;;;;;;0.80;0.80;;;6.30;1.00;;;;;;5124778;28;20165;-77
2023/12/26 03:02:20;;;;;;;0.70;0.70;;;6.40;1.00;;;;;;5128639;28;20177;-81
2023/12/26 03:04:46;;;;;;;0.80;0.80;;;6.40;1.00;;;;;;5122643;28;20203;-80
2023/12/26 03:07:11;;;;;;;0.60;0.60;;;6.80;1.00;;;;;;5122152;28;20208;-81
2023/12/26 03:09:38;;;;;;;0.70;0.70;;;6.60;1.00;;;;;;5121594;28;20173;-80
2023/12/26 03:12:04;;;;;;;0.70;0.70;;;6.60;1.00;;;;;;5121621;28;20185;-80
2023/12/26 03:14:29;;;;;;;0.70;0.70;;;6.60;1.00;;;;;;5122822;28;20169;-81
2023/12/26 03:16:55;;;;;;;0.80;0.80;;;6.60;1.00;;;;;;5122323;28;20197;-80
2023/12/26 03:19:20;;;;;;;0.70;0.70;;;6.60;1.00;;;;;;5122430;28;20201;-80
2023/12/26 03:21:46;;;;;;;0.70;0.70;;;6.60;1.00;;;;;;5121593;28;20169;-80
2023/12/26 03:24:11;;;;;;;0.70;0.70;;;6.60;1.00;;;;;;5123668;28;20173;-78
2023/12/26 03:26:37;;;;;;;0.80;0.80;;;6.50;1.00;;;;;;5129211;28;20197;-78
2023/12/26 03:29:03;;;;;;;0.70;0.70;;;6.50;1.00;;;;;;5125826;28;20201;-80
2023/12/26 03:31:28;;;;;;;0.73;0.73;;;6.50;1.00;;;;;;5121810;28;20188;-80
2023/12/26 03:33:55;;;;;;;0.70;0.70;;;6.50;1.00;;;;;;5120250;28;20169;-81
2023/12/26 03:36:20;;;;;;;0.73;0.73;;;6.50;1.00;;;;;;5122237;28;20204;-80
2023/12/26 03:38:46;;;;;;;0.70;0.70;;;6.60;1.00;;;;;;5121317;28;20169;-80
2023/12/26 03:41:12;;;;;;;0.63;0.63;;;6.70;1.00;;;;;;5120699;28;20177;-80
2023/12/26 03:43:37;;;;;;;0.70;0.70;;;7.10;1.00;;;;;;5119928;28;20609;-80
2023/12/26 03:46:03;;;;;;;0.70;0.70;;;6.90;1.00;;;;;;5119115;28;20269;-80
2023/12/26 03:48:28;;;;;;;0.70;0.70;;;6.90;1.00;;;;;;5119616;28;20256;-80
2023/12/26 03:50:54;;;;;;;0.80;0.80;;;7.00;1.00;;;;;;5119222;28;20184;-79
2023/12/26 03:53:20;;;;;;;0.70;0.70;;;6.90;1.00;;;;;;5119597;28;20670;-79
2023/12/26 03:55:46;;;;;;;0.80;0.80;;;7.00;1.00;;;;;;5118777;28;20553;-81
2023/12/26 03:58:12;;;;;;;0.80;0.80;;;7.00;1.00;;;;;;5120573;28;20177;-80
2023/12/26 04:00:38;;;;;;;0.70;0.70;;;7.00;1.00;;;;;;5120462;28;20196;-80
2023/12/26 04:03:04;;;;;;;0.70;0.70;;;7.40;1.00;;;;;;5119960;28;20712;-80
2023/12/26 04:05:29;;;;;;;0.80;0.80;;;7.10;99.90;;;;;;5119966;28;20177;-80
2023/12/26 04:07:55;;;;;;;0.80;0.80;;;7.20;99.90;;;;;;5121118;28;20698;-80
2023/12/26 04:10:20;;;;;;;0.70;0.70;;;7.30;99.90;;;;;;5121952;28;20214;-78
2023/12/26 04:12:46;;;;;;;0.70;0.70;;;7.40;99.90;;;;;;5120563;28;20642;-80
2023/12/26 04:15:12;;;;;;;0.80;0.80;;;7.30;39.40;;;;;;5120217;28;20224;-81
2023/12/26 04:17:38;;;;;;;0.80;0.80;;;7.30;99.90;;;;;;5119789;28;20201;-80
2023/12/26 04:20:04;;;;;;;0.63;0.63;;;7.60;2.10;;;;;;5121349;28;20184;-79
2023/12/26 04:22:29;;;;;;;0.80;0.80;;;7.40;1.00;;;;;;5119691;28;20187;-80
2023/12/26 04:24:55;;;;;;;0.70;0.70;;;7.40;1.00;;;;;;5123043;28;20169;-81
2023/12/26 04:27:21;;;;;;;0.80;0.80;;;7.40;1.00;;;;;;5125160;28;20679;-80
2023/12/26 04:29:47;;;;;;;0.80;0.80;;;7.80;1.00;;;;;;5122747;28;20196;-80
2023/12/26 04:32:13;;;;;;;0.70;0.70;;;7.50;99.90;;;;;;5124687;28;20670;-79
2023/12/26 04:34:38;;;;;;;0.67;0.67;;;7.60;99.90;;;;;;5126069;28;20268;-80
2023/12/26 04:37:04;;;;;;;0.70;0.70;;;7.50;99.90;;;;;;5124756;28;20220;-80
2023/12/26 04:39:30;;;;;;;0.70;0.70;;;7.60;1.00;;;;;;5124704;28;20181;-81
2023/12/26 04:41:56;;;;;;;0.70;0.70;;;7.60;1.00;;;;;;5124303;28;20256;-80
2023/12/26 04:44:22;;;;;;;0.70;0.70;;;7.60;1.00;;;;;;5122293;28;20624;-82
2023/12/26 04:46:48;;;;;;;0.77;0.77;;;8.10;1.00;;;;;;5122684;28;20269;-81
2023/12/26 04:49:13;;;;;;;0.80;0.80;;;7.70;1.00;;;;;;5123715;28;20169;-79
2023/12/26 04:51:39;;;;;;;0.60;0.60;;;7.70;1.00;;;;;;5122816;28;20173;-81
2023/12/26 04:54:05;;;;;;;0.70;0.70;;;7.60;1.00;;;;;;5123166;28;20227;-81
2023/12/26 04:56:30;;;;;;;0.80;0.80;;;7.60;1.00;;;;;;5121685;28;20276;-82
2023/12/26 04:58:56;;;;;;;0.70;0.70;;;7.90;1.00;;;;;;5123286;28;20619;-82
2023/12/26 05:01:22;;;;;;;0.70;0.70;;;7.80;1.00;;;;;;5122991;28;20173;-81
2023/12/26 05:03:47;;;;;;;0.70;0.70;;;7.70;1.00;;;;;;5122463;28;20173;-82
2023/12/26 05:06:17;;;;;;;0.70;0.70;;;7.80;1.00;;;;;;5122478;28;20250;-82
2023/12/26 05:08:43;;;;;;;0.80;0.80;;;7.80;1.00;;;;;;5121883;28;20181;-80
2023/12/26 05:11:08;;;;;;;0.73;0.73;;;8.00;1.00;;;;;;5123381;28;20609;-79
2023/12/26 05:13:34;;;;;;;0.60;0.60;;;7.80;1.00;;;;;;5123313;28;20222;-82
2023/12/26 05:16:03;;;;;;;0.70;0.70;;;7.70;1.00;;;;;;5122495;28;20487;-81
2023/12/26 05:18:32;;;;;;;0.70;0.70;;;7.70;1.00;;;;;;5122066;28;20207;-82
2023/12/26 05:21:00;;;;;;;0.77;0.77;;;7.70;1.00;;;;;;5123845;28;20169;-81
2023/12/26 05:23:26;;;;;;;0.70;0.70;;;7.70;1.00;;;;;;5123275;27;20241;-81
2023/12/26 05:25:51;;;;;;;0.80;0.80;;;8.00;99.90;;;;;;5121175;28;20261;-81
2023/12/26 05:28:17;;;;;;;0.80;0.80;;;7.70;99.90;;;;;;5121336;28;20204;-81
2023/12/26 05:30:43;;;;;;;0.70;0.70;;;7.70;99.90;;;;;;5122157;28;20925;-81
2023/12/26 05:33:09;;;;;;;0.80;0.80;;;7.80;1.00;;;;;;5120416;28;20181;-81
2023/12/26 05:35:35;;;;;;;0.70;0.70;;;7.80;99.90;;;;;;5120279;28;20246;-81
2023/12/26 05:38:01;;;;;;;0.70;0.70;;;7.70;99.90;;;;;;5120714;28;20208;-82
2023/12/26 05:40:27;;;;;;;0.70;0.70;;;7.80;99.90;;;;;;5121613;28;20256;-80
2023/12/26 05:42:52;;;;;;;0.70;0.70;;;7.70;1.00;;;;;;5121796;28;20226;-81
2023/12/26 05:45:18;;;;;;;0.70;0.70;;;8.40;1.00;;;;;;5120229;28;20173;-80
2023/12/26 05:47:43;;;;;;;0.73;0.73;;;7.90;1.00;;;;;;5122269;28;20213;-79
2023/12/26 05:50:10;;;;;;;0.80;0.80;;;7.60;99.90;;;;;;5121343;28;20173;-81
2023/12/26 05:52:35;;;;;;;0.70;0.70;;;7.60;99.90;;;;;;5120819;28;20177;-80
2023/12/26 05:55:01;;;;;;;0.70;0.70;;;7.60;1.00;;;;;;5121308;27;20607;-81
2023/12/26 05:57:27;;;;;;;0.80;0.80;;;7.50;1.00;;;;;;5120863;28;20193;-82
2023/12/26 05:59:53;;;;;;;0.70;0.70;;;7.80;1.00;;;;;;5120909;28;20634;-81
2023/12/26 06:02:18;;;;;;;0.80;0.80;;;7.40;1.00;;;;;;5120882;28;20205;-81
2023/12/26 06:04:44;;;;;;;0.70;0.70;;;7.30;55.80;;;;;;5120977;28;20191;-81
2023/12/26 06:07:11;;;;;;;0.87;0.87;;;7.40;99.90;;;;;;5122173;28;20217;-79
2023/12/26 06:09:37;;;;;;;0.70;0.70;;;7.40;99.90;;;;;;5135638;28;20185;-79
2023/12/26 06:12:03;;;;;;;0.70;0.70;;;7.30;99.90;;;;;;5125129;27;20184;-82
2023/12/26 06:14:29;;;;;;;0.70;0.70;;;7.30;99.90;;;;;;5120993;28;20243;-81
2023/12/26 06:16:55;;;;;;;0.80;0.80;;;7.40;1.00;;;;;;5122930;28;20201;-82
2023/12/26 06:19:21;;;;;;;0.80;0.80;;;7.50;1.00;;;;;;5123527;28;20162;-80
2023/12/26 06:21:48;;;;;;;0.80;0.80;;;7.40;1.00;;;;;;5122458;28;20673;-81
2023/12/26 06:24:14;;;;;;;0.80;0.80;;;7.40;1.00;;;;;;5121691;28;20234;-81
2023/12/26 06:26:39;;;;;;;0.80;0.80;;;7.40;1.00;;;;;;5121572;28;20196;-82
2023/12/26 06:29:05;;;;;;;0.80;0.80;;;7.40;1.00;;;;;;5121743;28;20198;-80
2023/12/26 06:31:30;;;;;;;0.70;0.70;;;7.50;1.00;;;;;;5118947;28;20169;-80
2023/12/26 06:33:56;;;;;;;0.70;0.70;;;7.30;48.30;;;;;;5116047;28;20169;-80
2023/12/26 06:36:21;;;;;;;0.80;0.80;;;7.30;99.90;;;;;;5119482;28;20193;-79
2023/12/26 06:38:47;;;;;;;0.70;0.70;;;7.60;99.90;;;;;;5136551;28;20203;-79
2023/12/26 06:41:14;;;;;;;0.77;0.77;;;7.40;99.90;;;;;;5135962;28;20173;-78
2023/12/26 06:43:40;;;;;;;0.80;0.80;;;7.20;99.90;;;;;;5135993;27;20228;-78
2023/12/26 06:46:06;;;;;;;0.60;0.60;;;7.30;99.90;;;;;;5135007;28;20181;-79
2023/12/26 06:48:31;;;;;;;0.70;0.70;;;7.90;99.90;;;;;;5135509;28;20201;-78
2023/12/26 06:50:57;;;;;;;0.80;0.80;;;7.80;99.90;;;;;;5136435;28;20169;-79
2023/12/26 06:53:23;;;;;;;0.70;0.70;;;8.20;99.90;;;;;;5133434;28;20654;-81
2023/12/26 06:55:48;;;;;;;0.80;0.80;;;7.30;99.90;;;;;;5121990;28;20242;-80
2023/12/26 06:58:14;;;;;;;0.70;0.70;;;7.30;44.60;;;;;;5122779;28;20177;-81
2023/12/26 07:00:40;;;;;;;0.80;0.80;;;7.50;98.10;;;;;;5122782;28;20242;-80
2023/12/26 07:03:05;;;;;;;0.83;0.83;;;7.70;99.90;;;;;;5116321;28;20169;-79
2023/12/26 07:05:31;;;;;;;0.80;0.80;;;7.20;99.90;;;;;;5115949;28;20173;-81
2023/12/26 07:07:57;;;;;;;0.80;0.80;;;7.20;99.90;;;;;;5122114;28;20201;-80
2023/12/26 07:10:22;;;;;;;0.70;0.70;;;7.20;99.90;;;;;;5132582;28;20177;-80
2023/12/26 07:12:48;;;;;;;0.73;0.73;;;7.30;99.90;;;;;;5121627;28;20192;-81
2023/12/26 07:15:14;;;;;;;0.83;0.83;;;7.20;99.90;;;;;;5118972;28;20182;-79
2023/12/26 07:17:40;;;;;;;0.70;0.70;;;7.10;99.90;;;;;;5101386;28;20265;-82
2023/12/26 07:20:08;;;;;;;0.70;0.70;;;7.10;99.90;;;;;;5101755;28;20169;-83
2023/12/26 07:22:34;;;;;;;0.70;0.70;;;7.10;99.90;;;;;;5100428;28;20211;-81
2023/12/26 07:24:59;;;;;;;0.70;0.70;;;7.20;99.90;;;;;;5097155;28;20178;-81
2023/12/26 07:27:25;;;;;;;0.70;0.70;;;7.10;99.90;;;;;;5096674;28;20714;-81
2023/12/26 07:29:50;;;;;;;0.70;0.70;;;7.20;99.90;;;;;;5099899;28;20230;-80
2023/12/26 07:32:19;;;;;;;0.70;0.70;;;7.20;99.90;;;;;;5104661;28;20172;-82
2023/12/26 07:34:46;;;;;;;0.80;0.80;;;7.40;99.90;;;;;;5113828;28;20545;-81
2023/12/26 07:37:11;;;;;;;0.80;0.80;;;7.20;99.90;;;;;;5117064;28;20280;-80
2023/12/26 07:39:37;;;;;;;0.70;0.70;;;7.60;99.90;;;;;;5119453;28;20189;-82
2023/12/26 07:42:02;;;;;;;0.70;0.70;;;7.20;99.90;;;;;;5111102;28;20177;-82
2023/12/26 07:44:28;;;;;;;0.70;0.70;;;7.20;99.90;;;;;;5110315;28;20190;-81
2023/12/26 07:46:55;;;;;;;0.80;0.80;;;7.60;99.90;;;;;;5108774;28;20272;-84
2023/12/26 07:49:22;;;;;;;0.80;0.80;;;7.30;99.90;;;;;;5111886;28;20169;-80
2023/12/26 07:51:47;;;;;;;0.70;0.70;;;7.50;99.90;;;;;;5112436;28;20197;-81
2023/12/26 07:54:13;;;;;;;0.70;0.70;;;7.50;99.90;;;;;;5111142;28;20177;-81
2023/12/26 07:56:39;;;;;;;0.70;0.70;;;7.40;99.90;;;;;;5108109;28;20566;-79
2023/12/26 07:59:04;;;;;;;0.70;0.70;;;8.00;99.90;;;;;;5117035;28;20188;-82
2023/12/26 08:01:31;;;;;;;0.70;0.70;;;7.30;99.90;;;;;;5108798;28;20173;-81
2023/12/26 08:03:57;;;;;;;0.70;0.70;;;7.20;99.90;;;;;;5110773;28;20181;-82
2023/12/26 08:06:26;;;;;;;0.77;0.77;;;7.30;99.90;;;;;;5107242;28;20213;-81
2023/12/26 08:08:54;;;;;;;0.80;0.80;;;7.30;99.90;;;;;;5112349;28;20554;-82
2023/12/26 08:11:21;;;;;;;0.80;0.80;;;7.20;99.90;;;;;;5112987;28;20238;-81
2023/12/26 08:13:47;;;;;;;0.80;0.80;;;7.30;99.90;;;;;;5120297;28;20174;-79
2023/12/26 08:16:13;;;;;;;0.80;0.80;;;7.40;99.90;;;;;;5116140;28;20257;-80
2023/12/26 08:18:39;;;;;;;0.70;0.70;;;7.50;99.90;;;;;;5116737;28;20184;-82
2023/12/26 08:21:05;;;;;;;0.70;0.70;;;7.50;99.90;;;;;;5116642;28;20169;-82
2023/12/26 08:23:30;;;;;;;0.73;0.73;;;7.60;1.00;;;;;;5108885;28;20207;-85
2023/12/26 08:25:56;;;;;;;0.80;0.80;;;7.90;1.00;;;;;;5098159;28;20331;-83
2023/12/26 08:28:21;;;;;;;0.70;0.70;;;7.50;99.90;;;;;;5098850;28;20337;-82
2023/12/26 08:30:47;;;;;;;0.70;0.70;;;7.60;99.90;;;;;;5098567;28;20227;-83
2023/12/26 08:33:15;;;;;;;0.70;0.70;;;7.80;1.00;;;;;;5096928;28;20181;-84
2023/12/26 08:35:41;;;;;;;0.70;0.70;;;7.60;1.00;;;;;;5096363;28;20280;-83
2023/12/26 08:38:06;;;;;;;0.77;0.77;;;7.70;42.40;;;;;;5096404;28;20189;-82
2023/12/26 08:40:35;;;;;;;0.70;0.70;;;8.30;1.00;;;;;;5095810;28;20188;-83
2023/12/26 08:43:00;;;;;;;0.70;0.70;;;8.00;1.00;;;;;;5103893;28;20181;-83
2023/12/26 08:45:26;;;;;;;0.70;0.70;;;8.00;1.00;;;;;;5096887;28;20632;-83
2023/12/26 08:47:53;;;;;;;0.70;0.70;;;8.40;1.00;;;;;;5097108;28;20241;-83
2023/12/26 08:50:19;;;;;;;0.60;0.60;;;8.10;99.90;;;;;;5097388;28;20169;-83
2023/12/26 08:52:45;;;;;;;0.70;0.70;;;8.30;99.90;;;;;;5099214;28;20208;-84
2023/12/26 08:55:11;;;;;;;0.60;0.60;;;8.30;99.90;;;;;;5100370;28;20174;-84
2023/12/26 08:57:37;;;;;;;0.70;0.70;;;8.60;92.10;;;;;;5102653;28;20193;-82
2023/12/26 09:00:04;;;;;;;0.60;0.60;;;8.40;16.00;;;;;;5108337;28;20181;-81
2023/12/26 09:02:30;;;;;;;0.63;0.63;;;8.40;1.00;;;;;;5115923;28;20174;-81
2023/12/26 09:04:56;;;;;;;0.73;0.73;;;8.50;1.00;;;;;;5113581;28;20199;-81
2023/12/26 09:07:21;;;;;;;0.60;0.60;;;8.70;99.90;;;;;;5094606;28;20214;-82
2023/12/26 09:09:47;;;;;;;0.70;0.70;;;8.80;99.90;;;;;;5098009;28;20201;-82
2023/12/26 09:12:12;;;;;;;0.73;0.73;;;8.80;1.00;;;;;;5118405;28;20200;-82
2023/12/26 09:14:39;;;;;;;0.70;0.70;;;9.00;1.00;;;;;;5114490;28;20185;-81
2023/12/26 09:17:04;;;;;;;0.60;0.60;;;8.70;1.00;;;;;;5114529;28;20668;-82
2023/12/26 09:19:30;;;;;;;0.70;0.70;;;8.80;1.00;;;;;;5120996;28;20169;-80
2023/12/26 09:21:56;;;;;;;0.60;0.60;;;8.80;1.00;;;;;;5122952;28;20192;-81
2023/12/26 09:24:22;;;;;;;0.70;0.70;;;8.80;1.00;;;;;;5116543;28;20246;-83
2023/12/26 09:26:47;;;;;;;0.60;0.60;;;9.10;1.00;;;;;;5111146;28;20224;-82
2023/12/26 09:29:13;;;;;;;0.70;0.70;;;8.70;99.90;;;;;;5114315;28;20212;-82
2023/12/26 09:31:39;;;;;;;0.60;0.60;;;8.80;1.00;;;;;;5124188;28;20182;-81
2023/12/26 09:34:05;;;;;;;0.63;0.63;;;8.80;1.00;;;;;;5119363;28;20200;-81
2023/12/26 09:36:30;;;;;;;0.60;0.60;;;8.80;1.00;;;;;;5114819;28;20189;-81
2023/12/26 09:38:56;;;;;;;0.60;0.60;;;8.80;99.90;;;;;;5118449;28;20727;-82
2023/12/26 09:41:26;;;;;;;0.80;0.80;;;8.90;1.00;;;;;;5122630;28;20182;-81
2023/12/26 09:43:55;;;;;;;0.70;0.70;;;8.90;99.90;;;;;;5124594;28;20175;-77
2023/12/26 09:46:21;;;;;;;0.70;0.70;;;8.80;99.90;;;;;;5122135;28;20272;-82
2023/12/26 09:48:47;;;;;;;0.60;0.60;;;8.70;1.00;;;;;;5115911;28;20253;-81
2023/12/26 09:51:21;;;;;;;0.60;0.60;;;9.20;99.90;;;;;;5112046;28;20502;-81
2023/12/26 09:53:51;;;;;;;0.70;0.70;;;8.80;99.90;;;;;;5116495;28;20179;-81
2023/12/26 09:56:17;;;;;;;0.60;0.60;;;8.80;99.90;;;;;;5119799;28;20206;-81
2023/12/26 09:58:43;;;;;;;0.60;0.60;;;8.90;99.90;;;;;;5115134;28;20255;-82
2023/12/26 10:01:13;;;;;;;0.60;0.60;;;9.00;99.90;;;;;;5118784;27;20572;-84
2023/12/26 10:03:39;;;;;;;0.60;0.60;;;9.00;99.90;;;;;;5122989;28;20280;-80
2023/12/26 10:06:06;;;;;;;0.70;0.70;;;9.00;99.90;;;;;;5121788;28;20222;-85
2023/12/26 10:08:32;;;;;;;0.70;0.70;;;8.90;99.90;;;;;;5123970;28;20208;-83
2023/12/26 10:10:58;;;;;;;0.60;0.60;;;8.90;99.90;;;;;;5119618;28;20690;-85
2023/12/26 10:13:23;;;;;;;0.60;0.60;;;8.90;99.90;;;;;;5102396;28;20189;-83
2023/12/26 10:15:49;;;;;;;0.60;0.60;;;9.30;99.90;;;;;;5102969;28;20388;-82
2023/12/26 10:18:16;;;;;;;0.70;0.70;;;9.10;99.90;;;;;;5103807;28;20205;-82
2023/12/26 10:20:42;;;;;;;0.70;0.70;;;9.10;99.90;;;;;;5101051;28;20204;-82
2023/12/26 10:23:11;;;;;;;0.80;0.80;;;9.20;99.90;;;;;;5102237;28;20174;-80
2023/12/26 10:25:36;;;;;;;0.70;0.70;;;9.10;99.90;;;;;;5109262;28;20181;-82
2023/12/26 10:28:02;;;;;;;0.80;0.80;;;9.20;99.90;;;;;;5109610;28;20209;-81
2023/12/26 10:30:28;;;;;;;0.70;0.70;;;9.00;99.90;;;;;;5113203;28;20185;-81
2023/12/26 10:33:01;;;;;;;0.70;0.70;;;9.10;99.90;;;;;;5123125;28;20195;-81
2023/12/26 10:35:27;;;;;;;0.70;0.70;;;9.40;99.90;;;;;;5124401;28;20196;-79
2023/12/26 10:37:55;;;;;;;0.60;0.60;;;9.30;90.40;;;;;;5137501;28;20178;-80
2023/12/26 10:40:21;;;;;;;0.60;0.60;;;9.20;52.00;;;;;;5135212;28;20177;-79
2023/12/26 10:42:49;;;;;;;0.70;0.70;;;9.30;82.30;;;;;;5138181;28;20202;-79
2023/12/26 10:45:18;;;;;;;0.63;0.63;;;9.40;56.50;;;;;;5137868;28;20180;-79
2023/12/26 10:47:48;;;;;;;0.70;0.70;;;9.40;12.00;;;;;;5136768;28;20207;-78
2023/12/26 10:50:16;;;;;;;0.60;0.60;;;9.60;95.10;;;;;;5133474;28;20216;-81
2023/12/26 10:53:04;;;;;;;0.60;0.60;;;9.50;1.00;;;;;;5127184;28;20194;-82
2023/12/26 10:55:32;;;;;;;0.70;0.70;;;9.60;1.00;;;;;;5126484;28;20263;-83
2023/12/26 10:58:31;;;;;;;0.67;0.67;;;9.60;1.00;;;;;;5126221;28;20204;-82
2023/12/26 11:00:57;;;;;;;0.70;0.70;;;9.60;1.00;;;;;;5125944;28;20184;-83
2023/12/26 13:52:31;;;;;;;0.70;0.70;;;9.80;1.00;;;;;;5123807;28;20897;-81
2023/12/26 13:55:34;;;;;;;0.67;0.67;;;9.70;99.70;;;;;;5123941;28;20173;-82
2023/12/26 13:58:38;;;;;;;0.50;0.50;;;9.60;99.90;;;;;;5124761;28;20245;-80
2023/12/26 14:01:41;;;;;;;0.50;0.50;;;9.60;1.00;;;;;;5125504;28;20173;-81
2023/12/26 14:04:44;;;;;;;0.67;0.67;;;9.60;1.00;;;;;;5123977;28;20614;-81
2023/12/26 14:07:48;;;;;;;0.70;0.70;;;9.50;19.80;;;;;;5124370;28;20208;-81
2023/12/26 14:10:52;;;;;;;0.70;0.70;;;9.50;99.90;;;;;;5126184;28;20602;-81
2023/12/26 14:13:55;;;;;;;0.63;0.63;;;9.50;1.00;;;;;;5125338;28;20997;-84
2023/12/26 14:16:58;;;;;;;0.70;0.70;;;9.50;1.00;;;;;;5110697;28;20752;-84
2023/12/26 14:20:02;;;;;;;0.60;0.60;;;9.50;1.00;;;;;;5123467;28;20218;-80
2023/12/26 14:23:06;;;;;;;0.60;0.60;;;9.40;1.00;;;;;;5124665;28;20173;-82
2023/12/26 14:26:09;;;;;;;0.80;0.80;;;9.40;99.90;;;;;;5119578;28;20169;-81
2023/12/26 14:29:12;;;;;;;0.67;0.67;;;9.50;99.90;;;;;;5117693;28;20709;-80
2023/12/26 14:32:16;;;;;;;0.60;0.60;;;9.40;1.00;;;;;;5116897;28;20165;-82
2023/12/26 14:35:19;;;;;;;0.60;0.60;;;9.40;27.50;;;;;;5117704;28;20172;-82
2023/12/26 14:38:23;;;;;;;0.70;0.70;;;9.40;99.90;;;;;;5129122;28;20280;-79
2023/12/26 14:40:48;;;;;;;0.70;0.70;;;9.40;99.90;;;;;;5128771;28;20161;-78
2023/12/26 14:43:14;;;;;;;0.70;0.70;;;9.40;1.00;;;;;;5128327;28;20210;-80
2023/12/26 14:45:39;;;;;;;0.70;0.70;;;9.30;1.00;;;;;;5126962;28;20173;-79
2023/12/26 14:48:05;;;;;;;0.63;0.63;;;9.30;1.00;;;;;;5122281;28;20217;-81
2023/12/26 14:50:30;;;;;;;0.70;0.70;;;9.30;1.00;;;;;;5115373;28;20180;-83
2023/12/26 14:52:56;;;;;;;0.63;0.63;;;9.30;99.90;;;;;;5116396;27;20228;-82
2023/12/26 14:55:22;;;;;;;0.80;0.80;;;9.30;1.00;;;;;;5110336;28;20192;-81
2023/12/26 14:57:47;;;;;;;0.60;0.60;;;9.50;1.00;;;;;;5104977;28;20178;-81
2023/12/26 15:00:13;;;;;;;0.60;0.60;;;9.30;1.00;;;;;;5102005;28;20177;-83
2023/12/26 15:02:40;;;;;;;0.70;0.70;;;9.20;1.00;;;;;;5102969;28;20184;-81
2023/12/26 15:05:06;;;;;;;0.70;0.70;;;9.30;1.00;;;;;;5100462;28;20165;-83
2023/12/26 15:07:32;;;;;;;0.80;0.80;;;9.20;99.90;;;;;;5100813;28;20668;-84
2023/12/26 15:09:59;;;;;;;0.70;0.70;;;9.20;99.90;;;;;;5102664;28;20622;-82
2023/12/26 15:12:24;;;;;;;0.80;0.80;;;9.20;1.00;;;;;;5102512;28;20173;-83
2023/12/26 15:14:50;;;;;;;0.70;0.70;;;9.20;1.00;;;;;;5102855;28;20186;-83
2023/12/26 15:17:16;;;;;;;0.67;0.67;;;9.20;55.10;;;;;;5100625;28;20204;-81
2023/12/26 15:19:41;;;;;;;0.60;0.60;;;9.20;90.50;;;;;;5100359;28;20185;-81
2023/12/26 15:22:08;;;;;;;0.60;0.60;;;9.30;55.90;;;;;;5101283;28;20170;-82
2023/12/26 15:24:33;;;;;;;0.67;0.67;;;9.20;99.90;;;;;;5097107;28;20545;-82
2023/12/26 15:26:59;;;;;;;0.60;0.60;;;9.20;99.90;;;;;;5104942;28;20190;-84
2023/12/26 15:29:25;;;;;;;0.60;0.60;;;9.20;99.90;;;;;;5112505;28;20201;-84
2023/12/26 15:31:50;;;;;;;0.70;0.70;;;9.20;99.90;;;;;;5134496;28;20192;-79
2023/12/26 15:34:17;;;;;;;0.60;0.60;;;9.20;1.00;;;;;;5137797;28;20165;-80
2023/12/26 15:36:44;;;;;;;0.70;0.70;;;9.20;99.90;;;;;;5137507;28;20205;-78
2023/12/26 15:39:10;;;;;;;0.60;0.60;;;9.30;99.90;;;;;;5137351;28;20166;-79
2023/12/26 15:41:36;;;;;;;0.60;0.60;;;9.10;1.00;;;;;;5126367;28;20195;-82
2023/12/26 15:44:03;;;;;;;0.60;0.60;;;9.20;1.00;;;;;;5119300;28;20192;-83
2023/12/26 15:46:29;;;;;;;0.60;0.60;;;9.10;1.00;;;;;;5115985;27;20988;-83
2023/12/26 15:48:55;;;;;;;0.60;0.60;;;9.10;1.00;;;;;;5117207;28;20576;-84
2023/12/26 15:51:24;;;;;;;0.60;0.60;;;9.10;1.00;;;;;;5117623;28;20260;-84
2023/12/26 15:53:50;;;;;;;0.70;0.70;;;9.10;1.00;;;;;;5118696;28;20189;-83
2023/12/26 15:56:20;;;;;;;0.70;0.70;;;9.00;27.30;;;;;;5118705;27;20196;-85